Goodland, Texas
Current Conditions -  °F | °C
As of 1:55 AM on Saturday 20 Dec 2014 (Local Time) from KCVN Reporting Station
Overcast Overcast  
Wind Chill: 23°   Ceiling: 200
Heat Index: 32°   Visibility: 1mi
Dew Point: 30°   Wind: 13mph
Humidity: 93%   Direction: 180°S
Pressure: 30.11"   Gusts: NA
Location:  34.1266°N, 102.525°W
Report Text: KCVN 200755Z 18011KT 1SM OVC002 00/M01 A3011 RMK AO1
Loading
Personal Weather Stations






























Interactive Weather Map New forecast layout! Learn more

10-Day Weather Forecast

Advertisements
Track Severe Weather on mobile